Terminal Aerodrome Forecast
Issued by NWS Denver/Boulder, CO

Home | Current Version | Previous Version | Text Only | Print | Product List | Glossary On
Versions: 1 2 3 4 5 6 7 8 9 10 11 12 13 14 15 16 17 18 19 20 21 22 23 24 25 26 27 28 29 30 31 32 33 34 35 36 37 38 39 40 41 42 43 44 45 46 47 48 49 50
804
FTUS45 KBOU 061509 AAA
TAFDEN
TAF AMD
KDEN 061509Z 0615/0718 20014KT P6SM FEW140 BKN220
     FM061900 25010KT P6SM SCT220
     FM070600 21012KT P6SM SCT220
     FM071300 24006KT P6SM SCT220
     FM071700 03009KT P6SM FEW100 SCT220=

USA.gov is the U.S. government's official web portal to all federal, state and local government web resources and services.